Time,TemperatureF,DewpointF,PressureIn,WindDirection,WindDirectionDegrees,WindSpeedMPH,WindSpeedGustMPH,Humidity,HourlyPrecipIn,Conditions,Clouds,dailyrainin,SoftwareType,DateUTC
2013-06-12 00:13:00,68.3,66.0,29.95,SSE,163,0.0,0.0,92,0.00,,,0.00,weatherlink.com 1.10,2013-06-12 04:13:00,
2013-06-12 00:28:00,68.1,66.0,29.95,SSE,163,0.0,0.0,92,0.00,,,0.00,weatherlink.com 1.10,2013-06-12 04:28:00,
2013-06-12 00:43:00,67.8,66.0,29.95,SSE,163,0.0,0.0,92,0.00,,,0.00,weatherlink.com 1.10,2013-06-12 04:43:00,
2013-06-12 00:58:00,67.6,65.0,29.95,SSE,163,0.0,0.0,92,0.00,,,0.00,weatherlink.com 1.10,2013-06-12 04:58:00,
2013-06-12 01:13:00,67.3,65.0,29.94,SSE,163,0.0,0.0,93,0.00,,,0.00,weatherlink.com 1.10,2013-06-12 05:13:00,
2013-06-12 01:28:00,67.1,65.0,29.94,SSE,163,0.0,0.0,94,0.00,,,0.00,weatherlink.com 1.10,2013-06-12 05:28:00,
2013-06-12 01:43:00,66.8,65.0,29.93,SSE,163,0.0,0.0,94,0.00,,,0.00,weatherlink.com 1.10,2013-06-12 05:43:00,
2013-06-12 01:58:00,66.6,65.0,29.94,SSE,163,0.0,0.0,95,0.00,,,0.00,weatherlink.com 1.10,2013-06-12 05:58:00,
2013-06-12 02:13:00,66.4,65.0,29.94,SSE,163,0.0,0.0,95,0.00,,,0.00,weatherlink.com 1.10,2013-06-12 06:13:00,
2013-06-12 02:28:00,66.1,65.0,29.93,SSE,163,0.0,0.0,95,0.00,,,0.00,weatherlink.com 1.10,2013-06-12 06:28:00,
2013-06-12 02:43:00,65.8,64.0,29.93,SSE,163,0.0,0.0,95,0.00,,,0.00,weatherlink.com 1.10,2013-06-12 06:43:00,
2013-06-12 02:58:00,65.6,64.0,29.93,SSE,163,0.0,0.0,95,0.00,,,0.00,weatherlink.com 1.10,2013-06-12 06:58:00,
2013-06-12 03:13:00,65.5,64.0,29.92,SSE,163,0.0,0.0,95,0.00,,,0.00,weatherlink.com 1.10,2013-06-12 07:13:00,
2013-06-12 03:29:00,65.2,64.0,29.92,SSE,163,0.0,0.0,95,0.00,,,0.00,weatherlink.com 1.10,2013-06-12 07:29:00,
2013-06-12 03:44:00,65.0,64.0,29.92,SSE,163,0.0,0.0,96,0.00,,,0.00,weatherlink.com 1.10,2013-06-12 07:44:00,
2013-06-12 03:59:00,65.0,64.0,29.92,SSE,163,0.0,0.0,96,0.00,,,0.00,weatherlink.com 1.10,2013-06-12 07:59:00,
2013-06-12 04:14:00,64.8,64.0,29.92,SSE,163,0.0,0.0,96,0.00,,,0.00,weatherlink.com 1.10,2013-06-12 08:14:00,
2013-06-12 04:29:00,64.7,64.0,29.92,SSE,163,0.0,0.0,96,0.00,,,0.00,weatherlink.com 1.10,2013-06-12 08:29:00,
2013-06-12 04:44:00,64.5,63.0,29.93,SSE,163,0.0,0.0,96,0.00,,,0.00,weatherlink.com 1.10,2013-06-12 08:44:00,
2013-06-12 04:59:00,64.3,63.0,29.93,SSE,163,0.0,0.0,96,0.00,,,0.00,weatherlink.com 1.10,2013-06-12 08:59:00,
2013-06-12 05:14:00,64.3,64.0,29.93,SSE,163,0.0,0.0,97,0.00,,,0.00,weatherlink.com 1.10,2013-06-12 09:14:00,
2013-06-12 05:29:00,64.2,63.0,29.93,SSE,163,0.0,0.0,97,0.00,,,0.00,weatherlink.com 1.10,2013-06-12 09:29:00,
2013-06-12 05:44:00,64.0,63.0,29.93,SSE,163,0.0,0.0,97,0.00,,,0.00,weatherlink.com 1.10,2013-06-12 09:44:00,
2013-06-12 05:59:00,63.9,63.0,29.94,ENE,66,0.0,1.0,97,0.00,,,0.00,weatherlink.com 1.10,2013-06-12 09:59:00,
2013-06-12 06:14:00,63.9,63.0,29.94,ENE,66,0.0,0.0,97,0.00,,,0.00,weatherlink.com 1.10,2013-06-12 10:14:00,
2013-06-12 06:29:00,63.9,63.0,29.95,ENE,66,0.0,0.0,97,0.00,,,0.00,weatherlink.com 1.10,2013-06-12 10:29:00,
2013-06-12 06:44:00,63.9,63.0,29.95,ENE,66,0.0,0.0,98,0.00,,,0.00,weatherlink.com 1.10,2013-06-12 10:44:00,
2013-06-12 06:59:00,64.0,64.0,29.95,ENE,66,0.0,0.0,98,0.00,,,0.00,weatherlink.com 1.10,2013-06-12 10:59:00,
2013-06-12 07:14:00,64.3,64.0,29.95,ENE,66,0.0,0.0,98,0.00,,,0.00,weatherlink.com 1.10,2013-06-12 11:14:00,
2013-06-12 07:29:00,65.2,65.0,29.95,ENE,66,0.0,0.0,98,0.00,,,0.00,weatherlink.com 1.10,2013-06-12 11:29:00,
2013-06-12 07:44:00,66.0,66.0,29.95,ENE,66,0.0,0.0,99,0.00,,,0.00,weatherlink.com 1.10,2013-06-12 11:44:00,
2013-06-12 07:59:00,67.1,67.0,29.95,ENE,66,0.0,0.0,99,0.00,,,0.00,weatherlink.com 1.10,2013-06-12 11:59:00,
2013-06-12 08:14:00,68.1,68.0,29.96,ENE,66,0.0,0.0,99,0.00,,,0.00,weatherlink.com 1.10,2013-06-12 12:14:00,
2013-06-12 08:29:00,69.1,69.0,29.97,ENE,66,0.0,1.0,99,0.00,,,0.00,weatherlink.com 1.10,2013-06-12 12:29:00,
2013-06-12 08:44:00,70.3,70.0,29.97,ENE,66,0.0,0.0,98,0.00,,,0.00,weatherlink.com 1.10,2013-06-12 12:44:00,
2013-06-12 08:59:00,71.1,68.0,29.98,ENE,66,0.0,0.0,90,0.00,,,0.00,weatherlink.com 1.10,2013-06-12 12:59:00,
2013-06-12 09:14:00,73.5,67.0,29.97,ENE,66,0.0,0.0,80,0.00,,,0.00,weatherlink.com 1.10,2013-06-12 13:14:00,
2013-06-12 09:29:00,76.0,69.0,29.96,SE,133,0.0,2.0,78,0.00,,,0.00,weatherlink.com 1.10,2013-06-12 13:29:00,
2013-06-12 09:44:00,77.9,67.0,29.96,SE,142,0.0,1.0,70,0.00,,,0.00,weatherlink.com 1.10,2013-06-12 13:44:00,
2013-06-12 09:59:00,79.6,68.0,29.95,SSE,160,0.0,1.0,68,0.00,,,0.00,weatherlink.com 1.10,2013-06-12 13:59:00,
2013-06-12 10:14:00,80.5,67.0,29.96,South,188,0.0,3.0,64,0.00,,,0.00,weatherlink.com 1.10,2013-06-12 14:14:00,
2013-06-12 10:29:00,81.4,68.0,29.96,SSE,150,0.0,2.0,64,0.00,,,0.00,weatherlink.com 1.10,2013-06-12 14:29:00,
2013-06-12 10:44:00,82.2,67.0,29.96,SE,146,0.0,1.0,60,0.00,,,0.00,weatherlink.com 1.10,2013-06-12 14:44:00,
2013-06-12 10:59:00,83.2,67.0,29.95,SE,146,0.0,1.0,59,0.00,,,0.00,weatherlink.com 1.10,2013-06-12 14:59:00,
2013-06-12 11:14:00,84.1,66.0,29.95,SSE,156,0.0,1.0,55,0.00,,,0.00,weatherlink.com 1.10,2013-06-12 15:14:00,
2013-06-12 11:29:00,84.9,67.0,29.95,WNW,293,0.0,2.0,55,0.00,,,0.00,weatherlink.com 1.10,2013-06-12 15:29:00,
2013-06-12 11:45:00,85.9,67.0,29.96,SSW,194,0.0,4.0,53,0.00,,,0.00,weatherlink.com 1.10,2013-06-12 15:45:00,
2013-06-12 12:00:00,86.7,67.0,29.96,ESE,107,0.0,5.0,52,0.00,,,0.00,weatherlink.com 1.10,2013-06-12 16:00:00,
2013-06-12 12:15:00,88.0,67.0,29.95,SSE,153,1.0,2.0,50,0.00,,,0.00,weatherlink.com 1.10,2013-06-12 16:15:00,
2013-06-12 12:30:00,88.6,69.0,29.95,SW,231,1.0,3.0,52,0.00,,,0.00,weatherlink.com 1.10,2013-06-12 16:30:00,
2013-06-12 12:45:00,89.3,69.0,29.94,West,259,1.0,1.0,51,0.00,,,0.00,weatherlink.com 1.10,2013-06-12 16:45:00,
2013-06-12 13:00:00,89.9,69.0,29.94,SW,215,0.0,6.0,51,0.00,,,0.00,weatherlink.com 1.10,2013-06-12 17:00:00,
2013-06-12 13:15:00,91.0,70.0,29.94,ESE,103,0.0,2.0,50,0.00,,,0.00,weatherlink.com 1.10,2013-06-12 17:15:00,
2013-06-12 13:30:00,91.6,70.0,29.93,SW,221,2.0,3.0,50,0.00,,,0.00,weatherlink.com 1.10,2013-06-12 17:30:00,
2013-06-12 13:45:00,92.7,70.0,29.93,ESE,109,1.0,4.0,48,0.00,,,0.00,weatherlink.com 1.10,2013-06-12 17:45:00,
2013-06-12 14:00:00,92.9,70.0,29.93,SE,142,1.0,3.0,48,0.00,,,0.00,weatherlink.com 1.10,2013-06-12 18:00:00,
2013-06-12 14:15:00,93.8,72.0,29.92,SW,223,1.0,4.0,49,0.00,,,0.00,weatherlink.com 1.10,2013-06-12 18:15:00,
2013-06-12 14:30:00,92.5,72.0,29.92,East,96,2.0,2.0,52,0.00,,,0.00,weatherlink.com 1.10,2013-06-12 18:30:00,
2013-06-12 14:45:00,91.6,72.0,29.92,ENE,74,3.0,4.0,53,0.00,,,0.00,weatherlink.com 1.10,2013-06-12 18:45:00,
2013-06-12 15:00:00,90.1,72.0,29.93,WNW,292,0.0,1.0,55,0.00,,,0.00,weatherlink.com 1.10,2013-06-12 19:00:00,
2013-06-12 15:15:00,88.8,73.0,29.93,WNW,292,0.0,0.0,60,0.00,,,0.00,weatherlink.com 1.10,2013-06-12 19:15:00,
2013-06-12 15:30:00,87.6,72.0,29.92,WNW,292,0.0,0.0,60,0.00,,,0.00,weatherlink.com 1.10,2013-06-12 19:30:00,
2013-06-12 15:45:00,87.2,72.0,29.92,WNW,292,0.0,0.0,61,0.00,,,0.00,weatherlink.com 1.10,2013-06-12 19:45:00,
2013-06-12 16:00:00,87.2,73.0,29.91,WNW,292,0.0,0.0,62,0.00,,,0.00,weatherlink.com 1.10,2013-06-12 20:00:00,
2013-06-12 16:15:00,88.6,72.0,29.90,SSW,199,1.0,2.0,59,0.00,,,0.00,weatherlink.com 1.10,2013-06-12 20:15:00,
2013-06-12 16:30:00,89.7,71.0,29.89,SSE,159,0.0,3.0,54,0.00,,,0.00,weatherlink.com 1.10,2013-06-12 20:30:00,
2013-06-12 16:45:00,91.0,70.0,29.89,SW,225,1.0,3.0,50,0.00,,,0.00,weatherlink.com 1.10,2013-06-12 20:45:00,
2013-06-12 17:00:00,91.2,71.0,29.88,SSW,209,2.0,4.0,52,0.00,,,0.00,weatherlink.com 1.10,2013-06-12 21:00:00,
2013-06-12 17:15:00,90.3,71.0,29.88,SE,134,0.0,5.0,53,0.00,,,0.00,weatherlink.com 1.10,2013-06-12 21:15:00,
2013-06-12 17:30:00,89.5,71.0,29.88,WSW,249,1.0,3.0,55,0.00,,,0.00,weatherlink.com 1.10,2013-06-12 21:30:00,
2013-06-12 18:00:00,89.5,73.0,29.88,SW,230,1.0,3.0,58,0.00,,,0.00,weatherlink.com 1.10,2013-06-12 22:00:00,
2013-06-12 18:15:00,89.0,73.0,29.87,SSE,153,0.0,4.0,59,0.00,,,0.00,weatherlink.com 1.10,2013-06-12 22:15:00,
2013-06-12 18:30:00,88.8,73.0,29.87,SE,144,0.0,2.0,60,0.00,,,0.00,weatherlink.com 1.10,2013-06-12 22:30:00,
2013-06-12 18:45:00,88.6,74.0,29.87,South,173,0.0,1.0,62,0.00,,,0.00,weatherlink.com 1.10,2013-06-12 22:45:00,
2013-06-12 19:00:00,87.6,74.0,29.87,SSE,161,1.0,1.0,64,0.00,,,0.00,weatherlink.com 1.10,2013-06-12 23:00:00,
2013-06-12 19:15:00,86.7,74.0,29.88,SE,125,1.0,1.0,67,0.00,,,0.00,weatherlink.com 1.10,2013-06-12 23:15:00,
2013-06-12 19:30:00,85.9,73.0,29.89,SSE,161,0.0,2.0,65,0.00,,,0.00,weatherlink.com 1.10,2013-06-12 23:30:00,
2013-06-12 19:45:00,85.5,73.0,29.89,SSE,161,1.0,1.0,66,0.00,,,0.00,weatherlink.com 1.10,2013-06-12 23:45:00,
2013-06-12 20:00:00,84.9,72.0,29.89,SE,137,0.0,1.0,65,0.00,,,0.00,weatherlink.com 1.10,2013-06-13 00:00:00,
2013-06-12 20:15:00,84.5,72.0,29.89,SE,137,0.0,0.0,67,0.00,,,0.00,weatherlink.com 1.10,2013-06-13 00:15:00,
2013-06-12 20:30:00,84.0,72.0,29.89,SE,134,0.0,0.0,68,0.00,,,0.00,weatherlink.com 1.10,2013-06-13 00:30:00,
2013-06-12 20:45:00,83.2,72.0,29.88,SE,134,0.0,0.0,70,0.00,,,0.00,weatherlink.com 1.10,2013-06-13 00:45:00,
2013-06-12 21:00:00,82.4,73.0,29.88,SE,138,0.0,0.0,72,0.00,,,0.00,weatherlink.com 1.10,2013-06-13 01:00:00,
2013-06-12 21:15:00,81.8,72.0,29.87,SE,138,0.0,0.0,73,0.00,,,0.00,weatherlink.com 1.10,2013-06-13 01:15:00,
2013-06-12 21:30:00,81.2,73.0,29.88,SE,138,0.0,0.0,75,0.00,,,0.00,weatherlink.com 1.10,2013-06-13 01:30:00,
2013-06-12 21:45:00,80.9,73.0,29.87,SE,138,0.0,0.0,76,0.00,,,0.00,weatherlink.com 1.10,2013-06-13 01:45:00,
2013-06-12 22:00:00,80.7,73.0,29.87,SE,138,0.0,0.0,76,0.00,,,0.00,weatherlink.com 1.10,2013-06-13 02:00:00,
2013-06-12 22:15:00,80.5,73.0,29.87,SE,138,0.0,1.0,77,0.00,,,0.00,weatherlink.com 1.10,2013-06-13 02:15:00,
2013-06-12 22:30:00,79.9,73.0,29.88,SE,138,0.0,0.0,78,0.00,,,0.00,weatherlink.com 1.10,2013-06-13 02:30:00,
2013-06-12 22:45:00,79.6,73.0,29.87,SE,138,0.0,0.0,79,0.00,,,0.00,weatherlink.com 1.10,2013-06-13 02:45:00,
2013-06-12 23:00:00,79.0,72.0,29.87,SE,138,0.0,0.0,80,0.00,,,0.00,weatherlink.com 1.10,2013-06-13 03:00:00,
2013-06-12 23:15:00,78.5,72.0,29.87,SE,138,0.0,0.0,81,0.00,,,0.00,weatherlink.com 1.10,2013-06-13 03:15:00,
2013-06-12 23:30:00,78.1,73.0,29.86,SE,138,0.0,0.0,83,0.00,,,0.00,weatherlink.com 1.10,2013-06-13 03:30:00,
2013-06-12 23:45:00,77.6,72.0,29.85,SE,138,0.0,0.0,83,0.00,,,0.00,weatherlink.com 1.10,2013-06-13 03:45:00,